Time;durP1;ratioP1;P1;durP2;ratioP2;P2;SDS_P1;SDS_P2;PMS_P1;PMS_P2;Temp;Humidity;BMP_temperature;BMP_pressure;BME280_temperature;BME280_humidity;BME280_pressure;Samples;Min_cycle;Max_cycle;Signal;HPM_P1;HPM_P2
2023/04/23 00:01:07;;;;;;;8.85;3.75;;;14.80;99.90;;;;;;5110763;28;20374;-67
2023/04/23 00:03:35;;;;;;;9.25;3.40;;;14.90;99.90;;;;;;5110269;28;20093;-67
2023/04/23 00:06:09;;;;;;;8.00;3.40;;;14.80;99.90;;;;;;5110449;28;20103;-68
2023/04/23 00:08:39;;;;;;;7.32;3.10;;;14.90;99.90;;;;;;5110721;28;20023;-68
2023/04/23 00:11:06;;;;;;;9.50;2.83;;;15.00;99.90;;;;;;5111065;28;20074;-66
2023/04/23 00:13:32;;;;;;;7.28;2.92;;;15.00;99.90;;;;;;5110469;28;20139;-67
2023/04/23 00:16:00;;;;;;;5.38;2.70;;;14.90;99.90;;;;;;5110369;28;20114;-66
2023/04/23 00:18:26;;;;;;;6.38;3.50;;;14.90;99.90;;;;;;5110270;28;20027;-66
2023/04/23 00:20:54;;;;;;;7.07;3.90;;;14.80;99.90;;;;;;5107366;28;20525;-66
2023/04/23 00:23:20;;;;;;;11.00;4.22;;;14.70;99.90;;;;;;5108065;28;20291;-67
2023/04/23 00:25:46;;;;;;;9.82;3.53;;;14.70;99.90;;;;;;5110635;28;20095;-67
2023/04/23 00:28:12;;;;;;;9.27;3.70;;;14.60;99.90;;;;;;5108939;28;20099;-66
2023/04/23 00:30:38;;;;;;;9.30;3.80;;;14.60;99.90;;;;;;5108919;28;20023;-66
2023/04/23 00:33:04;;;;;;;6.53;3.70;;;14.60;99.90;;;;;;5110437;28;20020;-68
2023/04/23 00:35:32;;;;;;;16.07;3.57;;;14.50;99.90;;;;;;5110698;28;20038;-66
2023/04/23 00:37:58;;;;;;;10.20;3.03;;;14.50;99.90;;;;;;5110660;28;20016;-66
2023/04/23 00:40:24;;;;;;;8.27;3.47;;;14.50;99.90;;;;;;5110675;28;20035;-66
2023/04/23 00:42:52;;;;;;;8.13;3.73;;;14.60;99.90;;;;;;5110089;28;20066;-66
2023/04/23 00:45:19;;;;;;;7.80;3.22;;;14.60;99.90;;;;;;5110377;28;20285;-66
2023/04/23 00:47:45;;;;;;;;;;;14.50;99.90;;;;;;5109008;28;20039;-67
2023/04/23 00:50:12;;;;;;;7.82;3.17;;;14.40;99.90;;;;;;5110083;28;19923;-67
2023/04/23 00:52:39;;;;;;;7.75;3.22;;;14.40;99.90;;;;;;5110145;28;20027;-67
2023/04/23 00:55:07;;;;;;;8.15;3.33;;;14.40;99.90;;;;;;5110056;28;20109;-67
2023/04/23 00:57:35;;;;;;;13.85;3.92;;;14.40;99.90;;;;;;5110102;28;20020;-67
2023/04/23 01:00:03;;;;;;;7.10;3.70;;;14.40;99.90;;;;;;5112912;28;20163;-65
2023/04/23 01:02:30;;;;;;;6.43;3.38;;;14.40;99.90;;;;;;5113778;27;20117;-66
2023/04/23 01:04:58;;;;;;;7.38;3.03;;;14.30;99.90;;;;;;5113865;28;20047;-65
2023/04/23 01:07:30;;;;;;;7.43;3.28;;;14.30;99.90;;;;;;5113701;28;20351;-66
2023/04/23 01:09:56;;;;;;;6.78;3.40;;;14.30;99.90;;;;;;5113751;28;20016;-66
2023/04/23 01:12:23;;;;;;;6.18;3.22;;;14.30;99.90;;;;;;5113616;28;20035;-67
2023/04/23 01:14:49;;;;;;;7.30;3.40;;;14.20;99.90;;;;;;5113515;28;20088;-67
2023/04/23 01:17:15;;;;;;;7.18;3.80;;;14.20;99.90;;;;;;5113786;28;20073;-65
2023/04/23 01:19:41;;;;;;;7.53;3.67;;;14.20;99.90;;;;;;5111932;28;20114;-65
2023/04/23 01:22:14;;;;;;;9.17;3.80;;;14.20;99.90;;;;;;5113412;28;20027;-65
2023/04/23 01:24:41;;;;;;;7.93;3.53;;;14.20;99.90;;;;;;5113221;28;20253;-66
2023/04/23 01:27:10;;;;;;;7.93;3.53;;;14.20;99.90;;;;;;5113477;28;20020;-66
2023/04/23 01:29:37;;;;;;;6.80;3.75;;;14.10;99.90;;;;;;5113330;28;20064;-66
2023/04/23 01:32:04;;;;;;;8.63;3.65;;;14.00;99.90;;;;;;5113439;28;20043;-66
2023/04/23 01:34:31;;;;;;;8.50;3.55;;;14.00;99.90;;;;;;5113231;28;20094;-66
2023/04/23 01:36:58;;;;;;;6.20;3.50;;;14.00;99.90;;;;;;5113280;28;20019;-67
2023/04/23 01:39:24;;;;;;;9.48;3.70;;;13.90;99.90;;;;;;5113509;27;20463;-67
2023/04/23 01:41:51;;;;;;;10.57;4.13;;;13.90;99.90;;;;;;5112861;28;20035;-68
2023/04/23 01:44:17;;;;;;;;;;;13.80;99.90;;;;;;5113839;28;20024;-67
2023/04/23 01:46:44;;;;;;;6.70;3.63;;;13.70;99.90;;;;;;5113095;28;19914;-67
2023/04/23 01:49:10;;;;;;;7.93;3.05;;;13.70;99.90;;;;;;5113261;28;20034;-67
2023/04/23 01:51:36;;;;;;;11.38;3.90;;;13.70;99.90;;;;;;5113389;28;20019;-66
2023/04/23 01:54:02;;;;;;;7.53;3.73;;;13.60;99.90;;;;;;5113293;28;20057;-67
2023/04/23 01:56:32;;;;;;;7.73;3.40;;;13.60;99.90;;;;;;5113158;28;20262;-67
2023/04/23 01:58:58;;;;;;;6.53;3.17;;;13.60;99.90;;;;;;5113187;28;20023;-66
2023/04/23 02:01:24;;;;;;;8.63;4.07;;;13.60;99.90;;;;;;5112868;28;20023;-67
2023/04/23 02:03:51;;;;;;;12.90;4.10;;;13.60;99.90;;;;;;5112738;28;20091;-67
2023/04/23 02:06:17;;;;;;;12.02;3.60;;;13.60;99.90;;;;;;5112644;28;20031;-67
2023/04/23 02:08:44;;;;;;;6.28;3.83;;;13.60;99.90;;;;;;5112961;28;20320;-68
2023/04/23 02:11:10;;;;;;;7.93;4.20;;;13.70;99.90;;;;;;5111633;28;20034;-66
2023/04/23 02:13:36;;;;;;;8.93;4.30;;;13.60;99.90;;;;;;5112933;28;20043;-67
2023/04/23 02:16:03;;;;;;;11.68;3.78;;;13.60;99.90;;;;;;5112687;28;20034;-68
2023/04/23 02:18:29;;;;;;;9.20;4.53;;;13.60;99.90;;;;;;5112464;28;20032;-66
2023/04/23 02:20:56;;;;;;;13.50;4.93;;;13.50;99.90;;;;;;5112560;28;20024;-66
2023/04/23 02:23:22;;;;;;;14.38;5.85;;;13.50;99.90;;;;;;5112594;28;20015;-67
2023/04/23 02:25:48;;;;;;;13.10;5.20;;;13.60;99.90;;;;;;5110944;28;20062;-67
2023/04/23 02:28:14;;;;;;;15.50;6.07;;;13.60;99.90;;;;;;5110932;28;20485;-67
2023/04/23 02:30:46;;;;;;;13.03;5.47;;;13.70;99.90;;;;;;5112429;28;20016;-67
2023/04/23 02:33:14;;;;;;;13.00;5.40;;;13.80;99.90;;;;;;5112375;28;20039;-67
2023/04/23 02:35:40;;;;;;;11.85;5.30;;;13.80;99.90;;;;;;5110672;28;20032;-67
2023/04/23 02:38:06;;;;;;;14.35;5.80;;;13.80;99.90;;;;;;5112339;28;20487;-67
2023/04/23 02:40:33;;;;;;;13.07;5.30;;;13.80;99.90;;;;;;5110766;28;20046;-67
2023/04/23 02:43:00;;;;;;;10.45;4.28;;;13.80;99.90;;;;;;5111953;28;20112;-68
2023/04/23 02:45:26;;;;;;;7.53;4.43;;;13.70;99.90;;;;;;5111956;28;20038;-67
2023/04/23 02:47:52;;;;;;;15.63;5.27;;;13.70;99.90;;;;;;5112001;28;20083;-68
2023/04/23 02:50:18;;;;;;;8.38;4.43;;;13.70;99.90;;;;;;5111758;28;20024;-68
2023/04/23 02:52:45;;;;;;;13.38;3.95;;;13.70;99.90;;;;;;5112553;28;20458;-67
2023/04/23 02:55:11;;;;;;;13.00;4.03;;;13.80;99.90;;;;;;5111942;28;20062;-68
2023/04/23 02:57:37;;;;;;;9.77;3.83;;;13.80;99.90;;;;;;5112238;28;20118;-66
2023/04/23 03:00:07;;;;;;;12.75;4.57;;;13.80;99.90;;;;;;5111703;28;20265;-67
2023/04/23 03:02:33;;;;;;;10.38;4.93;;;13.80;99.90;;;;;;5111732;28;20172;-67
2023/04/23 03:04:59;;;;;;;13.70;4.65;;;13.70;99.90;;;;;;5111561;28;20035;-67
2023/04/23 03:07:26;;;;;;;11.95;5.82;;;13.60;99.90;;;;;;5111657;28;20119;-67
2023/04/23 03:09:52;;;;;;;14.07;4.85;;;13.60;99.90;;;;;;5110098;28;20028;-67
2023/04/23 03:12:19;;;;;;;14.77;4.67;;;13.50;99.90;;;;;;5111584;28;20030;-66
2023/04/23 03:14:45;;;;;;;18.40;5.23;;;13.50;99.90;;;;;;5111578;28;20088;-67
2023/04/23 03:17:11;;;;;;;8.40;4.38;;;13.50;99.90;;;;;;5111586;28;20273;-67
2023/04/23 03:19:37;;;;;;;9.50;5.00;;;13.40;99.90;;;;;;5111349;28;20032;-67
2023/04/23 03:22:04;;;;;;;16.17;4.77;;;13.40;99.90;;;;;;5111737;28;20424;-66
2023/04/23 03:24:32;;;;;;;10.68;4.95;;;13.40;99.90;;;;;;5111233;28;20090;-66
2023/04/23 03:26:58;;;;;;;10.32;4.28;;;13.40;99.90;;;;;;5111383;28;20320;-67
2023/04/23 03:29:25;;;;;;;12.38;4.78;;;13.40;99.90;;;;;;5111041;28;20064;-67
2023/04/23 03:31:51;;;;;;;8.57;4.55;;;13.30;99.90;;;;;;5111297;28;20023;-67
2023/04/23 03:34:17;;;;;;;10.73;4.37;;;13.20;99.90;;;;;;5111062;28;20040;-67
2023/04/23 03:36:45;;;;;;;10.70;4.07;;;13.30;99.90;;;;;;5111199;28;20079;-66
2023/04/23 03:39:11;;;;;;;10.23;4.05;;;13.30;99.90;;;;;;5111086;28;20107;-67
2023/04/23 03:41:37;;;;;;;5.50;3.77;;;13.30;99.90;;;;;;5111140;28;20024;-67
2023/04/23 03:44:03;;;;;;;8.75;3.80;;;13.30;99.90;;;;;;5111467;28;20343;-68
2023/04/23 03:46:29;;;;;;;8.27;3.90;;;13.30;99.90;;;;;;5111183;28;20467;-68
2023/04/23 03:48:55;;;;;;;9.80;4.47;;;13.40;99.90;;;;;;5111057;28;20129;-66
2023/04/23 03:51:21;;;;;;;10.70;4.40;;;13.30;99.90;;;;;;5111121;28;20431;-67
2023/04/23 03:53:48;;;;;;;8.05;4.15;;;13.30;99.90;;;;;;5109326;28;20521;-67
2023/04/23 03:56:14;;;;;;;9.13;4.55;;;13.30;99.90;;;;;;5111399;28;20042;-66
2023/04/23 03:58:40;;;;;;;6.88;4.03;;;13.40;99.90;;;;;;5111128;28;20043;-67
2023/04/23 04:01:06;;;;;;;7.93;4.53;;;13.40;99.90;;;;;;5110920;28;20032;-67
2023/04/23 04:03:32;;;;;;;10.35;5.10;;;13.40;99.90;;;;;;5110719;28;20435;-67
2023/04/23 04:05:58;;;;;;;11.03;4.87;;;13.40;99.90;;;;;;5111181;28;20389;-64
2023/04/23 04:08:25;;;;;;;9.13;4.67;;;13.30;99.90;;;;;;5110827;28;20028;-67
2023/04/23 04:10:52;;;;;;;10.32;5.00;;;13.40;99.90;;;;;;5109777;28;20166;-66
2023/04/23 04:13:18;;;;;;;12.68;4.53;;;13.30;99.90;;;;;;5110838;28;20180;-67
2023/04/23 04:15:44;;;;;;;11.32;4.80;;;13.30;99.90;;;;;;5108893;28;20033;-67
2023/04/23 04:18:11;;;;;;;;;;;13.40;99.90;;;;;;5110621;28;20051;-65
2023/04/23 04:20:37;;;;;;;11.95;4.25;;;13.40;99.90;;;;;;5108187;28;20430;-66
2023/04/23 04:23:03;;;;;;;12.00;4.23;;;13.40;99.90;;;;;;5110675;28;20028;-67
2023/04/23 04:25:30;;;;;;;8.68;4.63;;;13.50;99.90;;;;;;5110588;28;20414;-67
2023/04/23 04:27:56;;;;;;;10.52;4.65;;;13.40;99.90;;;;;;5110287;28;20027;-68
2023/04/23 04:30:23;;;;;;;9.55;4.13;;;13.50;99.90;;;;;;5109048;28;20027;-67
2023/04/23 04:32:49;;;;;;;12.77;4.55;;;13.50;99.90;;;;;;5110251;28;20095;-67
2023/04/23 04:35:15;;;;;;;12.27;5.80;;;13.50;99.90;;;;;;5113480;28;20031;-67
2023/04/23 04:37:43;;;;;;;16.20;5.27;;;13.50;99.90;;;;;;5114206;28;20444;-67
2023/04/23 04:40:10;;;;;;;12.88;5.25;;;13.60;99.90;;;;;;5113794;28;20042;-67
2023/04/23 04:42:38;;;;;;;16.35;6.03;;;13.70;99.90;;;;;;5113825;28;20471;-66
2023/04/23 04:45:04;;;;;;;15.32;7.22;;;13.70;99.90;;;;;;5114440;28;20109;-65
2023/04/23 04:47:31;;;;;;;16.45;6.75;;;13.70;99.90;;;;;;5114742;28;20106;-66
2023/04/23 04:49:58;;;;;;;15.95;6.43;;;13.70;99.90;;;;;;5114378;28;20088;-68
2023/04/23 04:52:24;;;;;;;17.95;6.20;;;13.70;99.90;;;;;;5114592;28;20479;-67
2023/04/23 04:54:50;;;;;;;12.60;5.50;;;13.80;99.90;;;;;;5114333;28;20028;-68
2023/04/23 04:57:18;;;;;;;11.67;5.10;;;13.80;99.90;;;;;;5114167;28;20024;-68
2023/04/23 04:59:54;;;;;;;8.90;4.60;;;13.90;99.90;;;;;;5114231;28;20119;-67
2023/04/23 05:02:22;;;;;;;14.98;6.72;;;14.00;99.90;;;;;;5105628;28;20026;-67
2023/04/23 05:04:48;;;;;;;11.93;6.00;;;14.00;99.90;;;;;;5114123;28;20039;-68
2023/04/23 05:07:14;;;;;;;25.80;4.82;;;14.00;99.90;;;;;;5114134;28;20028;-68
2023/04/23 05:09:41;;;;;;;;;;;14.20;99.90;;;;;;5114529;28;20092;-68
2023/04/23 05:12:08;;;;;;;14.45;4.80;;;14.90;99.90;;;;;;5113989;28;19911;-67
2023/04/23 05:14:34;;;;;;;15.77;6.28;;;15.80;99.90;;;;;;5113899;28;20080;-67
2023/04/23 05:17:00;;;;;;;15.07;5.30;;;16.10;99.90;;;;;;5113249;28;20037;-65
2023/04/23 05:19:26;;;;;;;13.77;5.47;;;16.20;99.90;;;;;;5113503;28;20073;-68
2023/04/23 05:21:52;;;;;;;13.70;5.25;;;16.20;99.90;;;;;;5113819;28;20058;-68
2023/04/23 05:24:18;;;;;;;12.70;4.87;;;16.30;99.90;;;;;;5113929;28;20119;-69
2023/04/23 05:26:44;;;;;;;9.77;3.83;;;16.80;99.90;;;;;;5113797;28;20353;-70
2023/04/23 05:29:13;;;;;;;11.60;3.75;;;17.50;99.90;;;;;;5113897;28;20478;-69
2023/04/23 05:31:39;;;;;;;12.00;4.30;;;17.30;99.90;;;;;;5113793;28;20043;-70
2023/04/23 05:34:05;;;;;;;10.32;4.20;;;17.20;99.90;;;;;;5113586;28;20035;-70
2023/04/23 05:36:31;;;;;;;11.57;4.37;;;17.30;99.90;;;;;;5113532;28;20035;-67
2023/04/23 05:38:57;;;;;;;12.95;4.07;;;17.70;99.90;;;;;;5113783;28;20744;-69
2023/04/23 05:41:23;;;;;;;7.03;4.03;;;18.20;99.90;;;;;;5113234;28;20019;-68
2023/04/23 05:43:49;;;;;;;9.05;3.90;;;18.10;99.90;;;;;;5113449;28;20257;-69
2023/04/23 05:46:15;;;;;;;7.80;3.78;;;18.10;99.90;;;;;;5110408;28;20432;-69
2023/04/23 05:48:41;;;;;;;9.70;3.87;;;18.40;99.90;;;;;;5113324;28;20039;-70
2023/04/23 05:51:07;;;;;;;8.15;3.58;;;18.70;99.90;;;;;;5113013;28;20306;-70
2023/04/23 05:53:34;;;;;;;8.10;3.67;;;19.10;99.90;;;;;;5113041;28;20034;-69
2023/04/23 05:56:00;;;;;;;7.47;3.50;;;19.80;99.90;;;;;;5113021;28;20111;-70
2023/04/23 05:58:26;;;;;;;11.93;4.07;;;20.50;99.90;;;;;;5112774;28;20016;-70
2023/04/23 06:00:52;;;;;;;9.07;3.78;;;20.50;99.90;;;;;;5110996;28;20032;-70
2023/04/23 06:03:18;;;;;;;8.65;3.50;;;20.20;99.90;;;;;;5113083;28;20327;-71
2023/04/23 06:05:44;;;;;;;10.38;3.63;;;19.90;99.90;;;;;;5111013;28;20028;-71
2023/04/23 06:08:10;;;;;;;11.07;3.35;;;20.70;99.90;;;;;;5112755;28;20379;-71
2023/04/23 06:10:36;;;;;;;10.00;3.25;;;21.20;99.90;;;;;;5112677;28;20394;-71
2023/04/23 06:13:03;;;;;;;11.05;3.38;;;21.40;99.90;;;;;;5111794;28;20028;-71
2023/04/23 06:15:29;;;;;;;6.93;3.40;;;22.30;99.90;;;;;;5113516;28;20036;-67
2023/04/23 06:17:55;;;;;;;;;;;23.40;99.90;;;;;;5114369;28;20024;-71
2023/04/23 06:20:21;;;;;;;;;;;24.30;99.90;;;;;;5114008;28;19914;-71
2023/04/23 06:22:47;;;;;;;9.40;2.72;;;25.70;99.90;;;;;;5114111;28;19904;-70
2023/04/23 06:25:13;;;;;;;8.10;3.10;;;26.00;99.90;;;;;;5114052;28;20039;-70
2023/04/23 06:27:40;;;;;;;9.65;3.15;;;26.00;99.90;;;;;;5113415;28;20019;-71
2023/04/23 06:30:06;;;;;;;8.15;3.20;;;25.80;99.90;;;;;;5113599;28;20506;-69
2023/04/23 06:32:32;;;;;;;9.20;3.30;;;24.80;99.90;;;;;;5113350;28;20028;-70
2023/04/23 06:34:58;;;;;;;9.18;2.78;;;24.80;99.90;;;;;;5113284;28;20054;-72
2023/04/23 06:37:26;;;;;;;10.43;2.97;;;24.80;99.90;;;;;;5113679;28;20023;-70
2023/04/23 06:39:52;;;;;;;9.63;3.30;;;25.10;99.90;;;;;;5113277;28;20030;-70
2023/04/23 06:42:19;;;;;;;10.95;3.15;;;25.00;99.90;;;;;;5111557;28;20048;-68
2023/04/23 06:44:45;;;;;;;;;;;24.50;99.90;;;;;;5112267;28;20123;-72
2023/04/23 06:47:12;;;;;;;8.57;3.05;;;24.40;99.90;;;;;;5113079;28;20386;-69
2023/04/23 06:49:39;;;;;;;9.05;3.35;;;23.60;99.90;;;;;;5112877;28;20375;-71
2023/04/23 06:52:05;;;;;;;6.40;3.28;;;24.20;99.90;;;;;;5112928;28;20026;-71
2023/04/23 06:54:31;;;;;;;7.55;2.85;;;24.20;99.90;;;;;;5111477;28;20042;-70
2023/04/23 06:56:57;;;;;;;11.90;3.40;;;24.60;99.90;;;;;;5112538;28;20011;-69
2023/04/23 06:59:23;;;;;;;7.93;2.97;;;23.40;99.90;;;;;;5113296;28;20393;-70
2023/04/23 07:01:49;;;;;;;7.82;3.08;;;22.80;99.90;;;;;;5111404;28;20442;-70
2023/04/23 07:04:15;;;;;;;12.80;3.05;;;22.40;99.90;;;;;;5111269;28;20027;-71
2023/04/23 07:06:41;;;;;;;10.93;3.50;;;22.70;99.90;;;;;;5112611;28;20024;-69
2023/04/23 07:09:08;;;;;;;9.23;2.92;;;23.00;99.90;;;;;;5113022;28;20023;-69
2023/04/23 07:11:35;;;;;;;6.95;3.00;;;23.90;99.90;;;;;;5112718;28;20073;-72
2023/04/23 07:14:02;;;;;;;14.55;3.03;;;24.60;99.90;;;;;;5112749;28;20024;-69
2023/04/23 07:16:32;;;;;;;8.82;2.65;;;26.30;99.90;;;;;;5112932;27;20024;-71
2023/04/23 07:19:00;;;;;;;8.75;2.70;;;25.70;99.90;;;;;;5111010;28;20420;-70
2023/04/23 07:21:27;;;;;;;9.18;3.03;;;26.50;99.90;;;;;;5112482;28;20404;-71
2023/04/23 07:23:55;;;;;;;9.27;2.95;;;27.20;99.90;;;;;;5112515;28;20034;-72
2023/04/23 07:26:21;;;;;;;8.80;3.15;;;27.20;99.90;;;;;;5112394;28;20103;-70
2023/04/23 07:28:49;;;;;;;8.63;2.83;;;26.90;99.90;;;;;;5112170;28;20023;-70
2023/04/23 07:31:16;;;;;;;7.00;2.90;;;26.30;99.90;;;;;;5112054;28;20078;-69
2023/04/23 07:33:42;;;;;;;9.23;2.63;;;26.70;99.90;;;;;;5112040;28;20502;-71
2023/04/23 07:36:08;;;;;;;13.80;2.83;;;26.70;99.90;;;;;;5112603;28;20116;-72
2023/04/23 07:38:34;;;;;;;9.43;3.33;;;26.10;99.90;;;;;;5112674;28;20235;-70
2023/04/23 07:41:00;;;;;;;9.05;3.10;;;26.40;99.90;;;;;;5112467;28;20020;-68
2023/04/23 07:43:26;;;;;;;;;;;26.20;99.90;;;;;;5112400;28;20066;-71
2023/04/23 07:45:55;;;;;;;9.13;2.80;;;25.70;99.90;;;;;;5094680;28;19920;-70
2023/04/23 07:48:21;;;;;;;10.88;3.17;;;25.70;99.90;;;;;;5110427;28;20019;-67
2023/04/23 07:50:47;;;;;;;9.15;3.75;;;26.10;99.90;;;;;;5101669;28;20055;-68
2023/04/23 07:53:13;;;;;;;10.38;3.75;;;26.30;99.90;;;;;;5101751;28;20024;-69
2023/04/23 07:55:40;;;;;;;10.77;3.70;;;26.40;99.90;;;;;;5105322;28;20030;-67
2023/04/23 07:58:06;;;;;;;;;;;26.60;99.90;;;;;;5099665;28;20460;-71
2023/04/23 08:00:32;;;;;;;;;;;26.60;99.90;;;;;;5099225;28;19953;-67
2023/04/23 08:02:58;;;;;;;;;;;26.50;99.90;;;;;;5099682;28;20398;-71
2023/04/23 08:05:25;;;;;;;11.35;3.60;;;26.20;99.90;;;;;;5099332;28;20011;-67
2023/04/23 08:07:51;;;;;;;12.25;3.67;;;26.40;99.90;;;;;;5099735;28;20081;-71
2023/04/23 08:10:17;;;;;;;10.63;3.13;;;26.50;99.90;;;;;;5100771;28;20023;-71
2023/04/23 08:12:44;;;;;;;7.40;3.45;;;26.10;99.90;;;;;;5099729;28;20036;-69
2023/04/23 08:15:11;;;;;;;10.00;3.25;;;25.30;99.90;;;;;;5099897;28;20031;-72
2023/04/23 08:17:36;;;;;;;;;;;25.40;99.90;;;;;;5111574;28;20020;-66
2023/04/23 08:20:03;;;;;;;;;;;25.20;99.90;;;;;;5112337;28;19910;-71
2023/04/23 08:22:28;;;;;;;;;;;25.60;99.90;;;;;;5112717;28;20374;-70
2023/04/23 08:24:55;;;;;;;8.82;2.90;;;25.50;99.90;;;;;;5111969;28;19904;-71
2023/04/23 08:27:21;;;;;;;11.80;3.08;;;25.40;99.90;;;;;;5112050;28;20046;-70
2023/04/23 08:29:47;;;;;;;11.98;3.35;;;25.60;99.90;;;;;;5112474;28;20349;-70
2023/04/23 08:32:14;;;;;;;8.65;3.13;;;25.40;99.90;;;;;;5111974;28;20363;-70
2023/04/23 08:34:40;;;;;;;5.78;2.50;;;25.40;99.90;;;;;;5111815;28;20031;-70
2023/04/23 08:37:06;;;;;;;10.00;2.97;;;25.40;99.90;;;;;;5112328;28;20028;-71
2023/04/23 08:39:33;;;;;;;11.05;4.43;;;25.50;99.90;;;;;;5112358;28;20034;-69
2023/04/23 08:42:10;;;;;;;8.82;3.20;;;25.60;99.90;;;;;;5111652;28;20127;-69
2023/04/23 08:44:40;;;;;;;12.43;3.92;;;25.40;99.90;;;;;;5112188;28;20132;-69
2023/04/23 08:47:10;;;;;;;8.65;3.70;;;25.70;99.90;;;;;;5112136;28;20034;-70
2023/04/23 08:49:40;;;;;;;11.88;4.32;;;25.20;99.90;;;;;;5112052;28;20390;-69
2023/04/23 08:52:16;;;;;;;10.82;4.10;;;25.20;99.90;;;;;;5110875;28;20439;-69
2023/04/23 08:54:44;;;;;;;;;;;25.50;99.90;;;;;;5111609;28;20052;-70
2023/04/23 08:57:12;;;;;;;10.02;2.50;;;25.10;99.90;;;;;;5110128;28;19908;-70
2023/04/23 08:59:39;;;;;;;9.32;3.75;;;24.80;99.90;;;;;;5111432;28;20102;-70
2023/04/23 09:02:08;;;;;;;13.07;2.83;;;24.90;99.90;;;;;;5111426;28;20055;-70
2023/04/23 09:04:35;;;;;;;10.02;2.58;;;25.00;99.90;;;;;;5111022;28;20019;-70
2023/04/23 09:07:01;;;;;;;8.77;3.10;;;25.00;99.90;;;;;;5110217;28;20093;-71
2023/04/23 09:09:29;;;;;;;7.72;2.92;;;25.10;99.90;;;;;;5106854;28;20024;-72
2023/04/23 09:11:58;;;;;;;8.55;3.08;;;25.00;99.90;;;;;;5111519;28;20038;-68
2023/04/23 09:14:30;;;;;;;10.30;3.47;;;24.80;99.90;;;;;;5110194;28;20036;-71
2023/04/23 09:16:56;;;;;;;11.57;4.88;;;24.90;99.90;;;;;;5110040;28;20019;-71
2023/04/23 09:19:28;;;;;;;11.80;4.85;;;24.80;99.90;;;;;;5111214;28;20100;-70
2023/04/23 09:21:54;;;;;;;12.95;3.70;;;24.20;99.90;;;;;;5115597;28;20048;-71
2023/04/23 09:24:24;;;;;;;;;;;24.10;99.90;;;;;;5115726;28;20084;-71
2023/04/23 09:26:51;;;;;;;10.25;4.00;;;24.40;99.90;;;;;;5115182;28;19911;-73
2023/04/23 09:29:20;;;;;;;12.05;3.20;;;24.00;99.90;;;;;;5115490;28;20023;-71
2023/04/23 09:31:50;;;;;;;6.15;2.30;;;24.30;99.90;;;;;;5115018;28;20085;-73
2023/04/23 09:34:24;;;;;;;7.97;2.85;;;24.30;99.90;;;;;;5115096;28;20058;-71
2023/04/23 09:36:51;;;;;;;10.50;3.00;;;24.30;99.90;;;;;;5115451;28;20130;-71
2023/04/23 09:39:21;;;;;;;14.35;2.75;;;23.80;99.90;;;;;;5115092;28;20102;-71
2023/04/23 09:41:48;;;;;;;11.45;3.20;;;23.60;99.90;;;;;;5112879;28;20044;-72
2023/04/23 09:44:18;;;;;;;14.27;2.55;;;23.80;99.90;;;;;;5115298;28;20035;-70
2023/04/23 09:46:44;;;;;;;6.07;2.03;;;23.90;99.90;;;;;;5115102;27;20039;-71
2023/04/23 09:49:12;;;;;;;8.50;2.10;;;24.20;99.90;;;;;;5114372;28;20405;-72
2023/04/23 09:51:43;;;;;;;9.05;1.98;;;23.80;99.90;;;;;;5114607;28;20032;-72
2023/04/23 09:54:23;;;;;;;7.80;2.33;;;23.80;99.90;;;;;;5114543;28;20035;-71
2023/04/23 09:56:52;;;;;;;9.65;2.80;;;23.70;99.90;;;;;;5114373;28;20502;-70
2023/04/23 09:59:26;;;;;;;9.40;2.63;;;23.60;99.90;;;;;;5114333;28;20019;-70
2023/04/23 10:01:53;;;;;;;10.65;2.47;;;23.40;99.90;;;;;;5114224;28;20057;-69
2023/04/23 10:04:21;;;;;;;7.50;2.03;;;23.50;99.90;;;;;;5114221;28;20079;-70
2023/04/23 10:06:58;;;;;;;9.63;2.38;;;23.80;99.90;;;;;;5114341;28;20038;-71
2023/04/23 10:09:27;;;;;;;6.20;1.80;;;23.60;99.90;;;;;;5114397;28;20028;-70
2023/04/23 10:12:01;;;;;;;7.88;2.58;;;23.00;99.90;;;;;;5114192;28;20023;-72
2023/04/23 10:14:28;;;;;;;8.43;2.30;;;23.20;99.90;;;;;;5114090;28;20456;-70
2023/04/23 10:17:01;;;;;;;6.70;2.40;;;23.30;99.90;;;;;;5113986;27;20421;-69
2023/04/23 10:19:31;;;;;;;9.00;2.75;;;23.00;99.90;;;;;;5113925;28;20027;-71
2023/04/23 10:22:04;;;;;;;8.05;2.55;;;23.10;99.90;;;;;;5114637;28;20429;-72
2023/04/23 10:24:40;;;;;;;8.52;2.53;;;23.40;99.90;;;;;;5114503;28;20024;-70
2023/04/23 10:27:12;;;;;;;5.00;2.22;;;23.50;99.90;;;;;;5114399;27;20032;-71
2023/04/23 10:29:38;;;;;;;8.32;2.22;;;23.70;99.90;;;;;;5114187;28;20020;-70
2023/04/23 10:32:05;;;;;;;6.43;2.13;;;23.70;99.90;;;;;;5099100;28;20122;-70
2023/04/23 10:34:32;;;;;;;6.63;2.35;;;23.50;99.90;;;;;;5093514;28;20119;-70
2023/04/23 10:37:00;;;;;;;6.32;2.10;;;23.30;99.90;;;;;;5092002;28;20052;-71
2023/04/23 10:39:33;;;;;;;10.02;2.50;;;23.60;99.90;;;;;;5093765;28;20059;-67
2023/04/23 10:42:01;;;;;;;7.25;2.35;;;23.40;99.90;;;;;;5093290;28;20405;-70
2023/04/23 10:44:38;;;;;;;10.50;2.25;;;23.20;99.90;;;;;;5093248;28;20043;-70
2023/04/23 10:47:04;;;;;;;;;;;23.30;99.90;;;;;;5093344;28;20055;-72
2023/04/23 10:49:32;;;;;;;5.80;2.45;;;23.50;99.90;;;;;;5092974;28;19949;-71
2023/04/23 10:52:07;;;;;;;8.88;2.90;;;23.40;99.90;;;;;;5093182;28;20364;-73
2023/04/23 10:54:35;;;;;;;6.45;2.00;;;23.10;99.90;;;;;;5091518;28;20028;-72
2023/04/23 10:57:05;;;;;;;5.90;2.47;;;22.80;99.90;;;;;;5092727;28;20028;-76
2023/04/23 10:59:32;;;;;;;11.95;2.70;;;23.00;99.90;;;;;;5093144;28;20452;-73
2023/04/23 11:02:06;;;;;;;7.25;2.17;;;23.00;99.90;;;;;;5104905;28;20024;-72
2023/04/23 11:04:34;;;;;;;10.45;2.35;;;23.10;99.90;;;;;;5113074;28;20061;-69
2023/04/23 11:07:11;;;;;;;6.32;2.08;;;23.10;99.90;;;;;;5113048;28;20027;-73
2023/04/23 11:09:41;;;;;;;8.73;2.10;;;23.50;99.90;;;;;;5111658;28;20027;-70
2023/04/23 11:12:31;;;;;;;8.57;2.58;;;23.10;99.90;;;;;;5112881;28;20019;-71
2023/04/23 11:14:59;;;;;;;8.40;2.30;;;23.20;99.90;;;;;;5102717;28;20066;-71
2023/04/23 11:17:30;;;;;;;8.27;2.53;;;22.90;99.90;;;;;;5112979;28;20024;-71
2023/04/23 11:20:21;;;;;;;5.20;2.13;;;23.00;99.90;;;;;;5112886;28;20031;-73
2023/04/23 11:22:51;;;;;;;10.55;2.47;;;23.10;99.90;;;;;;5113496;28;20050;-72
2023/04/23 11:25:27;;;;;;;10.15;2.50;;;23.10;99.90;;;;;;5111369;28;20026;-65
2023/04/23 11:27:55;;;;;;;8.70;3.47;;;23.20;99.90;;;;;;5100165;28;20031;-79
2023/04/23 11:30:26;;;;;;;6.07;2.38;;;23.30;99.90;;;;;;5102151;28;20038;-69
2023/04/23 11:32:54;;;;;;;8.25;2.72;;;23.20;99.90;;;;;;5106531;28;20039;-74
2023/04/23 11:35:36;;;;;;;9.38;2.40;;;23.30;99.90;;;;;;5099657;28;20040;-79
2023/04/23 11:38:09;;;;;;;6.10;2.03;;;23.20;99.90;;;;;;5098293;28;20039;-80
2023/04/23 11:40:36;;;;;;;4.18;2.20;;;23.30;99.90;;;;;;5092428;28;20035;-81
2023/04/23 11:43:03;;;;;;;4.78;2.20;;;23.40;99.90;;;;;;5092067;28;20055;-80
2023/04/23 11:45:29;;;;;;;3.65;2.05;;;23.20;99.90;;;;;;5101831;28;20021;-80
2023/04/23 11:47:57;;;;;;;6.10;2.40;;;23.10;99.90;;;;;;5094461;28;20032;-80
2023/04/23 11:50:29;;;;;;;5.90;2.38;;;23.10;99.90;;;;;;5091945;28;20020;-78
2023/04/23 11:52:56;;;;;;;9.35;2.30;;;23.10;99.90;;;;;;5092437;28;20028;-80
2023/04/23 11:55:23;;;;;;;8.80;2.33;;;23.10;99.90;;;;;;5091766;28;20169;-76
2023/04/23 11:57:51;;;;;;;6.00;2.35;;;23.00;99.90;;;;;;5092323;28;20036;-75
2023/04/23 12:00:20;;;;;;;7.38;2.28;;;23.00;99.90;;;;;;5090522;28;20020;-75
2023/04/23 12:02:53;;;;;;;5.55;3.05;;;23.10;99.90;;;;;;5110482;28;20035;-74
2023/04/23 12:05:41;;;;;;;5.45;3.00;;;22.80;99.90;;;;;;5112068;28;20024;-74
2023/04/23 12:08:11;;;;;;;3.72;1.80;;;23.10;99.90;;;;;;5112330;28;20377;-75
2023/04/23 12:10:51;;;;;;;5.93;1.70;;;23.40;99.90;;;;;;5112163;28;20027;-74
2023/04/23 12:13:26;;;;;;;5.45;2.00;;;23.10;99.90;;;;;;5110189;28;20032;-75
2023/04/23 12:15:55;;;;;;;4.38;1.60;;;23.20;99.90;;;;;;5112379;28;20027;-75
2023/04/23 12:18:38;;;;;;;7.70;1.50;;;23.20;99.90;;;;;;5112243;28;20050;-79
2023/04/23 12:21:09;;;;;;;4.63;1.52;;;23.50;99.90;;;;;;5112174;28;20126;-80
2023/04/23 12:23:40;;;;;;;4.95;2.00;;;23.40;99.90;;;;;;5107703;28;20061;-79
2023/04/23 12:26:14;;;;;;;17.35;2.22;;;23.60;99.90;;;;;;5112112;28;20073;-82
2023/04/23 12:28:58;;;;;;;6.60;2.30;;;23.30;99.90;;;;;;5112220;28;20059;-79
2023/04/23 12:31:26;;;;;;;5.60;1.70;;;23.10;99.90;;;;;;5112143;28;20121;-79
2023/04/23 12:34:03;;;;;;;5.35;2.38;;;22.90;99.90;;;;;;5112162;28;20122;-80
2023/04/23 12:36:32;;;;;;;4.53;1.95;;;23.00;99.90;;;;;;5111908;28;20027;-76
2023/04/23 12:39:24;;;;;;;4.65;2.20;;;23.10;99.90;;;;;;5111801;28;20020;-79
2023/04/23 12:41:53;;;;;;;3.97;1.73;;;23.20;99.90;;;;;;5110214;28;20123;-79
2023/04/23 12:44:20;;;;;;;3.67;1.73;;;23.10;99.90;;;;;;5112557;28;20027;-79
2023/04/23 12:46:50;;;;;;;5.25;2.00;;;23.30;99.90;;;;;;5101024;28;20475;-80
2023/04/23 12:49:16;;;;;;;3.53;1.95;;;23.20;99.90;;;;;;5093498;28;20151;-79
2023/04/23 12:51:42;;;;;;;5.47;2.03;;;23.20;99.90;;;;;;5091333;28;20051;-80